Time;durP1;ratioP1;P1;durP2;ratioP2;P2;SDS_P1;SDS_P2;PMS_P1;PMS_P2;Temp;Humidity;BMP_temperature;BMP_pressure;BME280_temperature;BME280_humidity;BME280_pressure;Samples;Min_cycle;Max_cycle;Signal;HPM_P1;HPM_P2
2022/06/22 00:01:52;;;;;;;48.38;41.83;;;14.70;86.40;;;;;;5058871;28;20041;-82
2022/06/22 00:04:33;;;;;;;52.38;41.67;;;14.60;86.60;;;;;;5062641;28;20091;-79
2022/06/22 00:07:07;;;;;;;46.22;41.10;;;14.60;86.70;;;;;;5059566;28;20077;-80
2022/06/22 00:09:37;;;;;;;50.30;41.13;;;14.60;86.80;;;;;;5047044;28;20113;-81
2022/06/22 00:12:05;;;;;;;44.45;38.15;;;14.60;87.00;;;;;;5057346;28;20033;-82
2022/06/22 00:14:44;;;;;;;47.10;41.92;;;14.60;87.10;;;;;;5043546;28;20053;-81
2022/06/22 00:17:24;;;;;;;43.88;39.10;;;14.60;87.00;;;;;;5046174;28;20048;-82
2022/06/22 00:19:50;;;;;;;43.53;38.88;;;14.60;87.00;;;;;;5047584;28;20779;-81
2022/06/22 00:22:21;;;;;;;45.85;39.25;;;14.60;86.90;;;;;;5073286;28;20075;-81
2022/06/22 00:25:00;;;;;;;47.97;41.13;;;14.60;86.80;;;;;;5049028;28;20101;-82
2022/06/22 00:27:30;;;;;;;43.13;38.42;;;14.60;86.60;;;;;;5063502;28;20017;-84
2022/06/22 00:30:14;;;;;;;45.42;39.38;;;14.60;86.50;;;;;;5066369;28;20037;-82
2022/06/22 00:32:53;;;;;;;48.10;40.30;;;14.60;86.20;;;;;;5064914;28;20048;-81
2022/06/22 00:36:12;;;;;;;47.25;38.90;;;14.50;86.10;;;;;;5066823;28;20554;-83
2022/06/22 00:38:39;;;;;;;48.67;39.70;;;14.50;86.10;;;;;;4990273;28;20089;-84
2022/06/22 00:41:23;;;;;;;45.25;39.58;;;14.50;86.10;;;;;;5060921;28;20501;-80
2022/06/22 00:43:50;;;;;;;49.07;39.97;;;14.40;86.20;;;;;;5072868;28;20043;-82
2022/06/22 00:46:19;;;;;;;51.38;40.63;;;14.40;86.40;;;;;;5063620;28;20037;-83
2022/06/22 00:48:52;;;;;;;50.05;40.67;;;14.40;86.70;;;;;;5049743;28;20033;-84
2022/06/22 00:51:22;;;;;;;54.30;44.25;;;14.40;86.90;;;;;;5062162;28;20495;-81
2022/06/22 00:54:03;;;;;;;51.20;41.53;;;14.40;86.90;;;;;;5065515;28;20158;-81
2022/06/22 00:57:00;;;;;;;48.67;41.15;;;14.30;87.10;;;;;;5065371;28;20052;-83
2022/06/22 00:59:58;;;;;;;51.83;43.20;;;14.30;87.20;;;;;;5047354;28;20140;-81
2022/06/22 01:02:45;;;;;;;55.70;45.72;;;14.30;87.40;;;;;;5066902;28;20379;-81
2022/06/22 01:05:51;;;;;;;57.58;44.90;;;14.30;87.70;;;;;;5064035;28;20079;-80
2022/06/22 01:08:29;;;;;;;57.97;45.75;;;14.30;87.90;;;;;;5031005;28;20043;-82
2022/06/22 01:11:02;;;;;;;59.22;49.70;;;14.20;88.10;;;;;;5064122;28;20381;-81
2022/06/22 01:13:43;;;;;;;60.72;50.40;;;14.20;88.20;;;;;;5071583;28;20036;-81
2022/06/22 01:16:34;;;;;;;55.63;47.13;;;14.30;88.40;;;;;;5059416;28;20037;-82
2022/06/22 01:19:10;;;;;;;60.22;49.30;;;14.20;88.50;;;;;;5049171;28;20029;-81
2022/06/22 01:21:44;;;;;;;64.03;49.47;;;14.20;88.60;;;;;;5067580;28;20468;-84
2022/06/22 01:24:37;;;;;;;64.67;51.57;;;14.20;88.90;;;;;;5052954;28;20035;-82
2022/06/22 01:27:23;;;;;;;62.10;50.15;;;14.20;89.00;;;;;;5016741;28;20286;-82
2022/06/22 01:29:49;;;;;;;63.22;51.80;;;14.10;89.40;;;;;;5070501;28;20031;-82
2022/06/22 01:32:19;;;;;;;65.88;50.15;;;14.10;89.50;;;;;;5054341;28;20028;-82
2022/06/22 01:34:47;;;;;;;64.13;49.92;;;14.10;89.70;;;;;;5068818;28;20119;-82
2022/06/22 01:37:25;;;;;;;65.95;51.97;;;14.00;89.80;;;;;;5063615;28;20787;-81
2022/06/22 01:40:10;;;;;;;62.30;50.65;;;14.00;89.90;;;;;;5048531;28;20120;-81
2022/06/22 01:42:59;;;;;;;65.45;52.38;;;14.00;89.90;;;;;;5049823;28;20043;-82
2022/06/22 01:45:35;;;;;;;69.80;52.88;;;13.90;90.20;;;;;;5048531;28;20068;-81
2022/06/22 01:48:05;;;;;;;72.38;54.58;;;14.00;90.30;;;;;;5063935;28;20036;-84
2022/06/22 01:50:37;;;;;;;60.83;50.10;;;13.90;90.40;;;;;;5067801;28;20037;-81
2022/06/22 01:53:17;;;;;;;57.85;46.45;;;14.00;90.40;;;;;;5066177;28;20037;-81
2022/06/22 01:56:08;;;;;;;58.47;47.50;;;13.90;90.40;;;;;;5066731;28;20068;-82
2022/06/22 01:58:41;;;;;;;56.10;45.80;;;13.90;90.40;;;;;;5053198;28;20041;-81
2022/06/22 02:01:21;;;;;;;56.88;47.03;;;13.90;90.40;;;;;;5063775;28;20044;-81
2022/06/22 02:04:27;;;;;;;59.83;47.60;;;13.90;90.20;;;;;;5067254;28;20044;-82
2022/06/22 02:10:42;;;;;;;58.17;45.75;;;13.90;89.30;;;;;;5059113;28;20048;-82
2022/06/22 02:13:44;;;;;;;59.20;48.30;;;13.80;89.00;;;;;;5060507;28;20113;-81
2022/06/22 02:16:20;;;;;;;66.63;50.95;;;13.80;89.10;;;;;;5055597;28;20048;-84
2022/06/22 02:18:58;;;;;;;60.28;47.03;;;13.80;89.50;;;;;;5068126;28;20032;-82
2022/06/22 02:21:44;;;;;;;57.80;48.78;;;13.80;89.60;;;;;;5067207;28;20032;-80
2022/06/22 02:24:16;;;;;;;55.60;48.67;;;13.70;89.60;;;;;;5050818;28;20421;-82
2022/06/22 02:26:48;;;;;;;61.60;49.13;;;13.70;89.60;;;;;;5064040;28;20033;-81
2022/06/22 02:29:17;;;;;;;67.05;50.78;;;13.70;89.80;;;;;;5065788;28;20033;-81
2022/06/22 02:31:43;;;;;;;61.92;51.03;;;13.70;89.90;;;;;;5067246;28;20042;-83
2022/06/22 02:34:10;;;;;;;58.47;48.92;;;13.70;90.00;;;;;;5048935;28;20480;-82
2022/06/22 02:36:41;;;;;;;68.55;52.08;;;13.70;89.90;;;;;;5050981;28;20025;-82
2022/06/22 02:39:10;;;;;;;65.32;51.00;;;13.70;90.10;;;;;;5051001;28;20048;-83
2022/06/22 02:44:31;;;;;;;63.20;51.08;;;13.70;90.40;;;;;;5060465;28;20125;-81
2022/06/22 02:47:41;;;;;;;70.93;55.25;;;13.70;90.40;;;;;;5067922;28;20040;-82
2022/06/22 02:50:26;;;;;;;65.95;52.55;;;13.80;90.90;;;;;;5060856;28;20074;-81
2022/06/22 02:52:55;;;;;;;78.15;57.90;;;13.80;91.00;;;;;;5051638;28;20119;-82
2022/06/22 02:55:24;;;;;;;68.63;54.47;;;13.80;91.00;;;;;;5060235;28;20153;-81
2022/06/22 02:57:53;;;;;;;68.15;52.72;;;13.80;91.00;;;;;;5048740;28;20058;-80
2022/06/22 03:00:25;;;;;;;71.40;55.05;;;13.70;91.10;;;;;;5042284;28;20058;-83
2022/06/22 03:02:55;;;;;;;70.30;53.90;;;13.70;91.20;;;;;;5048487;28;20040;-81
2022/06/22 03:05:23;;;;;;;72.00;55.30;;;13.70;91.20;;;;;;5042592;28;20091;-81
2022/06/22 03:07:52;;;;;;;69.28;52.88;;;13.70;91.30;;;;;;5066151;28;20139;-81
2022/06/22 03:11:15;;;;;;;61.58;50.50;;;13.60;91.40;;;;;;5047954;28;20045;-80
2022/06/22 03:13:49;;;;;;;66.78;52.67;;;13.60;91.40;;;;;;4984722;28;20034;-81
2022/06/22 03:16:36;;;;;;;67.95;52.38;;;13.60;91.40;;;;;;5055757;28;20059;-81
2022/06/22 03:19:11;;;;;;;62.33;49.72;;;13.60;91.50;;;;;;5050965;28;20045;-81
2022/06/22 03:21:37;;;;;;;63.35;51.60;;;13.60;91.30;;;;;;5067351;28;20028;-81
2022/06/22 03:24:19;;;;;;;67.55;52.63;;;13.60;91.00;;;;;;5066551;28;20029;-81
2022/06/22 03:26:55;;;;;;;67.15;52.88;;;13.50;90.60;;;;;;5065188;28;20404;-81
2022/06/22 03:29:35;;;;;;;71.07;54.40;;;13.50;90.70;;;;;;5066036;28;20330;-81
2022/06/22 03:32:14;;;;;;;63.67;51.88;;;13.50;90.70;;;;;;5066057;28;20066;-81
2022/06/22 03:34:44;;;;;;;58.05;50.42;;;13.50;90.70;;;;;;5071827;28;20035;-85
2022/06/22 03:37:35;;;;;;;63.80;50.80;;;13.50;90.80;;;;;;5073578;28;20070;-83
2022/06/22 03:40:08;;;;;;;63.40;49.35;;;13.50;90.60;;;;;;5073089;28;20334;-84
2022/06/22 03:42:40;;;;;;;62.78;51.72;;;13.50;90.40;;;;;;5084140;28;20411;-80
2022/06/22 03:45:34;;;;;;;60.17;49.13;;;13.50;90.50;;;;;;5065155;28;20054;-81
2022/06/22 03:48:04;;;;;;;63.80;49.53;;;13.60;90.70;;;;;;5065983;28;20064;-81
2022/06/22 03:50:48;;;;;;;57.72;48.65;;;13.60;90.70;;;;;;5071234;28;20111;-81
2022/06/22 03:53:37;;;;;;;58.30;47.72;;;13.60;90.70;;;;;;5063737;28;20028;-81
2022/06/22 03:56:10;;;;;;;55.70;46.22;;;13.60;90.60;;;;;;5065430;28;20456;-80
2022/06/22 03:58:37;;;;;;;52.85;43.95;;;13.70;90.60;;;;;;5062736;28;20033;-80
2022/06/22 04:01:04;;;;;;;52.13;44.00;;;13.70;90.40;;;;;;5058112;28;20472;-80
2022/06/22 04:03:30;;;;;;;53.00;44.92;;;13.80;90.30;;;;;;5065568;28;20131;-81
2022/06/22 04:05:58;;;;;;;48.80;41.75;;;13.80;90.00;;;;;;5043627;28;20122;-81
2022/06/22 04:08:29;;;;;;;52.38;43.40;;;13.90;89.70;;;;;;5063576;28;20086;-81
2022/06/22 04:11:06;;;;;;;51.42;44.95;;;14.00;89.20;;;;;;5059634;28;20041;-80
2022/06/22 04:14:04;;;;;;;48.30;41.50;;;14.10;88.70;;;;;;5062043;28;20087;-81
2022/06/22 04:16:40;;;;;;;50.33;43.95;;;14.10;88.60;;;;;;5035457;28;20081;-81
2022/06/22 04:19:12;;;;;;;50.45;41.75;;;14.10;88.40;;;;;;5062616;28;20053;-81
2022/06/22 04:21:42;;;;;;;54.00;44.45;;;14.20;88.10;;;;;;5065295;28;20124;-80
2022/06/22 04:24:15;;;;;;;56.13;44.85;;;14.20;88.10;;;;;;5057235;28;20040;-81
2022/06/22 04:26:58;;;;;;;58.28;45.20;;;14.20;88.20;;;;;;5061032;28;20036;-83
2022/06/22 04:29:52;;;;;;;61.67;47.30;;;14.20;88.20;;;;;;5057511;28;20760;-79
2022/06/22 04:32:47;;;;;;;53.72;44.72;;;14.20;88.40;;;;;;5058467;28;20041;-80
2022/06/22 04:35:19;;;;;;;55.22;45.90;;;14.20;88.50;;;;;;5058858;28;20380;-80
2022/06/22 04:37:52;;;;;;;55.00;43.40;;;14.20;88.60;;;;;;5048701;28;20033;-80
2022/06/22 04:40:55;;;;;;;54.90;43.85;;;14.10;88.80;;;;;;5059988;28;20040;-80
2022/06/22 04:43:21;;;;;;;49.83;41.10;;;14.20;88.80;;;;;;5031191;28;20045;-81
2022/06/22 04:45:48;;;;;;;55.55;43.92;;;14.30;88.70;;;;;;5065862;28;20044;-80
2022/06/22 04:48:19;;;;;;;51.13;40.75;;;14.30;88.50;;;;;;5056724;28;20033;-80
2022/06/22 04:50:50;;;;;;;53.83;41.83;;;14.30;88.70;;;;;;5062141;28;20037;-80
2022/06/22 04:53:25;;;;;;;50.40;41.05;;;14.30;88.70;;;;;;5045454;28;20099;-80
2022/06/22 04:55:52;;;;;;;50.22;41.58;;;14.40;88.60;;;;;;5066060;28;20052;-80
2022/06/22 04:58:51;;;;;;;45.60;38.13;;;14.40;88.60;;;;;;5061428;28;20032;-81
2022/06/22 05:01:23;;;;;;;48.63;40.08;;;14.60;88.40;;;;;;5054880;28;20025;-81
2022/06/22 05:03:51;;;;;;;48.55;38.45;;;14.60;88.20;;;;;;5057295;28;20048;-80
2022/06/22 05:06:28;;;;;;;47.40;37.55;;;14.60;88.10;;;;;;5057948;28;20037;-82
2022/06/22 05:08:59;;;;;;;37.80;33.72;;;14.90;87.60;;;;;;5053159;28;20033;-80
2022/06/22 05:11:36;;;;;;;36.63;31.08;;;15.90;85.90;;;;;;5043105;28;20417;-81
2022/06/22 05:14:10;;;;;;;32.42;27.02;;;17.00;81.70;;;;;;5053752;28;20142;-80
2022/06/22 05:16:36;;;;;;;29.65;24.33;;;18.40;76.20;;;;;;5059830;28;20124;-80
2022/06/22 05:19:02;;;;;;;27.27;22.92;;;19.50;71.20;;;;;;5060207;28;20116;-80
2022/06/22 05:21:32;;;;;;;27.42;22.55;;;20.40;68.80;;;;;;5050416;28;20032;-81
2022/06/22 05:24:04;;;;;;;26.75;22.13;;;21.10;66.20;;;;;;5048102;28;20156;-80
2022/06/22 05:26:31;;;;;;;23.73;19.08;;;22.10;62.40;;;;;;5066928;28;20039;-81
2022/06/22 05:29:36;;;;;;;22.17;19.23;;;22.80;60.70;;;;;;5050705;28;20577;-81
2022/06/22 05:32:08;;;;;;;25.65;22.00;;;22.60;58.30;;;;;;5032018;28;20086;-81
2022/06/22 05:34:37;;;;;;;24.63;20.30;;;22.50;58.70;;;;;;5046152;28;20123;-80
2022/06/22 05:37:12;;;;;;;23.58;20.73;;;22.50;60.30;;;;;;5049010;28;20037;-81
2022/06/22 05:39:40;;;;;;;26.35;20.10;;;23.10;58.10;;;;;;5050340;28;20044;-81
2022/06/22 05:42:06;;;;;;;26.73;20.77;;;22.70;58.30;;;;;;5068884;28;20044;-81
2022/06/22 05:44:33;;;;;;;27.17;19.95;;;23.10;57.40;;;;;;5064717;28;20033;-81
2022/06/22 05:47:00;;;;;;;27.83;19.98;;;23.50;56.20;;;;;;5069624;28;20548;-84
2022/06/22 05:49:51;;;;;;;26.48;21.38;;;22.50;58.00;;;;;;5069587;28;20025;-81
2022/06/22 05:52:29;;;;;;;25.58;21.83;;;21.30;63.30;;;;;;5069559;28;20105;-81
2022/06/22 05:55:00;;;;;;;25.52;21.45;;;20.80;64.70;;;;;;5063158;28;20562;-82
2022/06/22 05:57:47;;;;;;;27.30;22.02;;;20.50;65.80;;;;;;5050349;28;20676;-81
2022/06/22 06:00:27;;;;;;;28.92;23.25;;;19.90;67.60;;;;;;5048501;28;20494;-80
2022/06/22 06:03:14;;;;;;;31.00;23.42;;;19.10;70.00;;;;;;5046008;28;20028;-81
2022/06/22 06:05:43;;;;;;;29.27;24.40;;;18.50;72.30;;;;;;5057304;28;20435;-82
2022/06/22 06:08:40;;;;;;;33.80;25.00;;;18.00;75.30;;;;;;5039203;28;20032;-81
2022/06/22 06:11:09;;;;;;;34.80;26.38;;;17.80;76.30;;;;;;5068926;28;20039;-83
2022/06/22 06:13:45;;;;;;;32.58;26.35;;;17.70;77.10;;;;;;5058110;28;20050;-81
2022/06/22 06:16:26;;;;;;;31.02;24.90;;;17.60;78.00;;;;;;5065497;28;20066;-79
2022/06/22 06:18:57;;;;;;;31.75;25.95;;;17.70;77.50;;;;;;5062107;28;20043;-79
2022/06/22 06:21:28;;;;;;;31.08;27.55;;;17.80;77.30;;;;;;5041104;28;20119;-83
2022/06/22 06:24:18;;;;;;;31.55;25.23;;;17.90;77.70;;;;;;5064073;28;20033;-80
2022/06/22 06:29:49;;;;;;;28.15;21.83;;;17.80;77.20;;;;;;5065229;28;20115;-79
2022/06/22 06:32:34;;;;;;;28.50;21.77;;;17.80;76.70;;;;;;5062582;28;20373;-79
2022/06/22 06:35:06;;;;;;;26.27;22.05;;;17.70;75.90;;;;;;5058420;28;20048;-79
2022/06/22 06:38:10;;;;;;;26.65;22.02;;;17.80;76.10;;;;;;5058439;28;20070;-79
2022/06/22 06:40:48;;;;;;;27.70;22.80;;;17.90;75.90;;;;;;5055252;28;20501;-80
2022/06/22 06:43:44;;;;;;;27.20;22.27;;;18.00;76.00;;;;;;5060516;28;20348;-81
2022/06/22 06:46:14;;;;;;;;;;;18.00;76.00;;;;;;5009226;28;20046;-80
2022/06/22 06:48:44;;;;;;;27.63;21.58;;;18.20;75.30;;;;;;5062081;28;19919;-79
2022/06/22 06:51:14;;;;;;;28.35;20.52;;;18.20;75.10;;;;;;5045234;28;20126;-80
2022/06/22 06:53:45;;;;;;;29.67;20.42;;;18.40;75.40;;;;;;5045924;28;20098;-79
2022/06/22 06:56:30;;;;;;;31.80;22.52;;;18.40;73.80;;;;;;5041511;28;20045;-79
2022/06/22 06:59:00;;;;;;;28.73;19.48;;;18.60;73.30;;;;;;5048050;28;20120;-80
2022/06/22 07:01:31;;;;;;;25.30;20.13;;;18.50;74.10;;;;;;5044420;28;20028;-79
2022/06/22 07:04:02;;;;;;;23.30;19.02;;;18.60;73.10;;;;;;5066422;28;20056;-79
2022/06/22 07:06:29;;;;;;;28.23;20.48;;;18.90;73.90;;;;;;5059098;28;20029;-80
2022/06/22 07:09:00;;;;;;;27.25;21.50;;;19.10;72.80;;;;;;5042515;28;20020;-79
2022/06/22 07:11:51;;;;;;;25.23;19.48;;;19.10;72.20;;;;;;5043271;28;20363;-79
2022/06/22 07:14:26;;;;;;;25.98;18.98;;;19.00;71.50;;;;;;5030077;28;20078;-81
2022/06/22 07:16:53;;;;;;;;;;;19.00;72.40;;;;;;5045987;28;20380;-80
2022/06/22 07:19:26;;;;;;;26.25;18.92;;;19.00;71.90;;;;;;5059216;28;20410;-81
2022/06/22 07:21:59;;;;;;;23.20;18.65;;;19.10;72.70;;;;;;5058001;28;20032;-81
2022/06/22 07:24:46;;;;;;;23.92;17.88;;;19.50;70.60;;;;;;5043689;28;20103;-80
2022/06/22 07:27:34;;;;;;;22.92;17.83;;;19.60;70.40;;;;;;5060004;28;20037;-79
2022/06/22 07:30:20;;;;;;;20.52;15.77;;;19.70;70.10;;;;;;5049145;28;20119;-79
2022/06/22 07:32:58;;;;;;;19.95;13.93;;;19.90;67.20;;;;;;5044245;28;20483;-82
2022/06/22 07:35:34;;;;;;;21.52;15.00;;;20.00;67.40;;;;;;5059831;28;20491;-80
2022/06/22 07:38:57;;;;;;;19.27;13.70;;;20.30;65.20;;;;;;5047159;28;20044;-80
2022/06/22 07:41:24;;;;;;;18.70;13.38;;;20.40;66.50;;;;;;5003703;28;20050;-81
2022/06/22 07:43:52;;;;;;;20.08;13.05;;;20.70;65.80;;;;;;5007031;28;20382;-80
2022/06/22 07:46:29;;;;;;;21.77;13.48;;;20.70;64.00;;;;;;5014735;28;20040;-82
2022/06/22 07:49:03;;;;;;;18.40;12.10;;;20.90;65.30;;;;;;5045496;28;20048;-80
2022/06/22 07:51:31;;;;;;;18.85;12.15;;;20.90;64.40;;;;;;5043816;28;20028;-80
2022/06/22 07:54:09;;;;;;;17.13;11.18;;;20.90;64.00;;;;;;5060415;28;20024;-80
2022/06/22 07:57:02;;;;;;;16.25;11.07;;;21.10;63.30;;;;;;5050595;28;20052;-83
2022/06/22 07:59:37;;;;;;;14.32;10.38;;;21.00;62.00;;;;;;5055545;28;20037;-82
2022/06/22 08:02:27;;;;;;;19.65;10.23;;;20.70;62.80;;;;;;5050927;28;20045;-81
2022/06/22 08:05:16;;;;;;;14.25;8.15;;;21.10;62.70;;;;;;5044135;28;20094;-80
2022/06/22 08:07:55;;;;;;;10.23;6.90;;;21.10;59.80;;;;;;5056593;28;20044;-82
2022/06/22 08:10:31;;;;;;;9.32;5.97;;;21.40;59.60;;;;;;5055544;28;20037;-82
2022/06/22 08:13:07;;;;;;;12.32;6.40;;;21.60;57.60;;;;;;5042636;28;20032;-82
2022/06/22 08:15:44;;;;;;;10.25;6.22;;;21.60;56.60;;;;;;5059440;28;20040;-84
2022/06/22 08:18:10;;;;;;;13.18;6.43;;;21.60;55.60;;;;;;5041620;28;20037;-81
2022/06/22 08:20:39;;;;;;;13.70;6.60;;;21.30;57.00;;;;;;5041291;28;20033;-82
2022/06/22 08:23:07;;;;;;;12.73;5.43;;;21.40;55.50;;;;;;5060665;28;20041;-82
2022/06/22 08:25:34;;;;;;;12.18;5.47;;;21.60;55.20;;;;;;5046208;28;20044;-82
2022/06/22 08:28:03;;;;;;;10.05;5.00;;;21.90;54.30;;;;;;5043864;28;20035;-81
2022/06/22 08:30:29;;;;;;;12.52;5.57;;;22.10;54.40;;;;;;5040674;28;20117;-84
2022/06/22 08:33:03;;;;;;;8.63;5.10;;;22.30;53.90;;;;;;5040824;28;20174;-83
2022/06/22 08:35:35;;;;;;;10.63;5.25;;;22.40;53.80;;;;;;5057762;28;20041;-83
2022/06/22 08:38:25;;;;;;;10.02;5.32;;;22.50;53.10;;;;;;5064850;28;20487;-82
2022/06/22 08:41:20;;;;;;;11.98;5.22;;;22.50;53.40;;;;;;5039652;28;20366;-81
2022/06/22 08:43:57;;;;;;;9.93;5.03;;;22.60;53.50;;;;;;5060941;28;20036;-84
2022/06/22 08:46:44;;;;;;;9.85;4.70;;;22.90;52.00;;;;;;5040156;28;20123;-83
2022/06/22 08:49:13;;;;;;;11.40;4.88;;;23.30;51.30;;;;;;5059318;28;20044;-83
2022/06/22 08:52:20;;;;;;;9.95;5.18;;;23.50;50.80;;;;;;5039561;28;20068;-83
2022/06/22 08:55:16;;;;;;;8.57;4.35;;;23.90;49.50;;;;;;4998127;28;20545;-84
2022/06/22 08:58:05;;;;;;;9.25;4.63;;;24.20;47.90;;;;;;5062915;28;20029;-83
2022/06/22 09:01:12;;;;;;;11.43;4.50;;;24.10;48.20;;;;;;5045373;28;20033;-82
2022/06/22 09:04:02;;;;;;;11.45;4.90;;;24.10;48.20;;;;;;5041400;28;20053;-82
2022/06/22 09:06:39;;;;;;;10.65;5.15;;;23.80;48.20;;;;;;5060609;28;20079;-82
2022/06/22 09:09:31;;;;;;;10.57;4.85;;;23.60;48.90;;;;;;5065753;28;20033;-81
2022/06/22 09:12:12;;;;;;;11.75;5.90;;;23.90;49.10;;;;;;5046844;28;20032;-83
2022/06/22 09:15:20;;;;;;;11.90;5.40;;;23.90;47.50;;;;;;5042254;28;20055;-80
2022/06/22 09:18:05;;;;;;;11.07;5.00;;;23.40;48.80;;;;;;5079545;28;20017;-87
2022/06/22 09:20:59;;;;;;;9.68;4.70;;;23.80;48.30;;;;;;5084637;28;20032;-88
2022/06/22 09:23:31;;;;;;;11.35;5.00;;;24.10;48.30;;;;;;5061488;28;20033;-86
2022/06/22 09:26:23;;;;;;;10.00;5.43;;;24.40;48.10;;;;;;5072917;28;20043;-86
2022/06/22 09:28:56;;;;;;;9.35;5.20;;;24.60;46.90;;;;;;5048572;28;20032;-81
2022/06/22 09:31:53;;;;;;;9.40;5.80;;;24.90;46.60;;;;;;5064909;28;20120;-82
2022/06/22 09:34:37;;;;;;;15.18;5.82;;;25.20;44.90;;;;;;5060867;28;20127;-82
2022/06/22 09:37:41;;;;;;;10.65;5.40;;;25.00;45.90;;;;;;5059821;28;20060;-81
2022/06/22 09:40:32;;;;;;;11.77;6.72;;;24.50;45.80;;;;;;5003952;28;20076;-82
2022/06/22 09:43:19;;;;;;;10.20;5.15;;;24.50;46.50;;;;;;5003704;28;20374;-82
2022/06/22 09:45:56;;;;;;;12.43;6.20;;;24.70;45.60;;;;;;5056021;28;20032;-83
2022/06/22 09:48:44;;;;;;;9.70;6.35;;;24.90;45.30;;;;;;5045743;28;20447;-85
2022/06/22 09:51:28;;;;;;;10.77;6.57;;;24.60;44.00;;;;;;5060850;28;20051;-82
2022/06/22 09:56:19;;;;;;;13.02;6.70;;;24.40;44.90;;;;;;5063297;28;20032;-84
2022/06/22 09:57:12;;;;;;;11.53;5.97;;;24.30;44.60;;;;;;5058767;28;20068;-83
2022/06/22 09:59:47;;;;;;;12.10;6.38;;;24.50;45.20;;;;;;5053030;28;20064;-81
2022/06/22 10:02:24;;;;;;;10.57;5.82;;;24.60;45.40;;;;;;5045265;28;20029;-83
2022/06/22 10:05:22;;;;;;;9.13;5.93;;;24.50;45.80;;;;;;5062513;28;20805;-82
2022/06/22 10:08:16;;;;;;;12.93;6.25;;;25.20;44.50;;;;;;5043245;28;20036;-82
2022/06/22 10:10:45;;;;;;;12.18;6.30;;;25.80;43.40;;;;;;5062128;28;20036;-81
2022/06/22 10:13:40;;;;;;;11.32;6.28;;;26.00;43.80;;;;;;5063277;28;20067;-80
2022/06/22 10:16:30;;;;;;;12.98;7.45;;;25.50;42.90;;;;;;5063177;28;20045;-81
2022/06/22 10:19:11;;;;;;;12.98;7.20;;;24.90;43.50;;;;;;5064916;28;20036;-83
2022/06/22 10:21:56;;;;;;;11.13;6.55;;;24.80;43.10;;;;;;5053721;28;20048;-81
2022/06/22 10:24:34;;;;;;;13.82;6.43;;;24.90;44.60;;;;;;5043044;28;20028;-81
2022/06/22 10:27:02;;;;;;;10.07;6.55;;;24.70;41.50;;;;;;5051607;28;20450;-82
2022/06/22 10:29:49;;;;;;;10.25;6.32;;;24.60;42.80;;;;;;5054950;28;20589;-81
2022/06/22 10:32:54;;;;;;;10.43;6.10;;;24.60;44.30;;;;;;5054334;28;20385;-81
2022/06/22 10:35:23;;;;;;;10.25;5.90;;;25.20;44.00;;;;;;5037749;28;20066;-81
2022/06/22 10:37:59;;;;;;;11.93;7.00;;;25.20;45.10;;;;;;5039444;28;20107;-82
2022/06/22 10:47:05;;;;;;;13.30;6.55;;;25.20;43.60;;;;;;5057525;28;20067;-86
2022/06/22 10:50:03;;;;;;;11.50;7.40;;;25.50;42.00;;;;;;5036250;28;20037;-82
2022/06/22 10:52:50;;;;;;;10.95;6.40;;;25.70;42.60;;;;;;5054402;28;20054;-83
2022/06/22 10:55:53;;;;;;;11.60;5.68;;;26.10;41.20;;;;;;5052478;28;20094;-82
2022/06/22 10:58:56;;;;;;;11.35;6.50;;;26.50;40.30;;;;;;5052548;28;20049;-82
2022/06/22 11:01:33;;;;;;;14.35;7.60;;;26.40;40.60;;;;;;5050229;28;20121;-82
2022/06/22 11:04:27;;;;;;;12.57;6.50;;;25.50;42.00;;;;;;5036800;28;20057;-81
2022/06/22 11:06:55;;;;;;;12.10;6.50;;;25.80;42.90;;;;;;5050864;28;20133;-82
2022/06/22 11:09:47;;;;;;;11.55;7.50;;;26.10;41.20;;;;;;5051081;28;20052;-84
2022/06/22 11:12:28;;;;;;;11.95;6.93;;;25.60;42.10;;;;;;5042106;28;20132;-82
2022/06/22 11:15:18;;;;;;;17.02;9.50;;;25.70;42.40;;;;;;5049554;28;20044;-81
2022/06/22 11:18:31;;;;;;;10.25;5.85;;;25.90;43.60;;;;;;5052350;28;20124;-82
2022/06/22 11:21:12;;;;;;;13.85;5.95;;;26.00;42.20;;;;;;5035649;28;20103;-80
2022/06/22 11:23:59;;;;;;;8.77;5.95;;;25.90;39.20;;;;;;5034670;28;20396;-81
2022/06/22 11:32:49;;;;;;;14.43;8.30;;;26.00;43.70;;;;;;5053626;28;20636;-80
2022/06/22 11:35:56;;;;;;;11.32;6.65;;;25.70;42.50;;;;;;5050610;28;20048;-80
2022/06/22 11:38:57;;;;;;;13.63;5.90;;;25.50;42.10;;;;;;5037334;28;20369;-82
2022/06/22 11:41:44;;;;;;;10.73;5.50;;;25.70;41.10;;;;;;5054046;28;20063;-81
2022/06/22 11:44:43;;;;;;;7.85;4.53;;;26.10;38.80;;;;;;5049758;28;20408;-81
2022/06/22 11:47:25;;;;;;;11.07;6.75;;;26.30;39.10;;;;;;5008271;28;20368;-83
2022/06/22 11:49:51;;;;;;;10.15;5.90;;;26.50;42.90;;;;;;5050369;28;20446;-82
2022/06/22 11:52:36;;;;;;;9.95;4.57;;;25.90;38.90;;;;;;5042126;28;20056;-85
2022/06/22 11:55:22;;;;;;;11.57;6.30;;;26.10;40.80;;;;;;5055183;28;20563;-81
2022/06/22 11:58:10;;;;;;;9.70;5.50;;;26.40;39.40;;;;;;5038284;28;20507;-82
2022/06/22 12:01:00;;;;;;;13.38;6.93;;;26.40;39.30;;;;;;5053907;28;20059;-82
2022/06/22 12:03:29;;;;;;;11.85;6.70;;;26.50;40.70;;;;;;5060082;28;20038;-81
2022/06/22 12:06:39;;;;;;;12.02;7.13;;;26.30;42.70;;;;;;5044254;28;20472;-79
2022/06/22 12:09:34;;;;;;;11.57;6.88;;;26.50;43.90;;;;;;5036124;28;20041;-83
2022/06/22 12:12:09;;;;;;;11.25;7.18;;;26.80;43.90;;;;;;5054160;28;20036;-82
2022/06/22 12:18:13;;;;;;;12.35;6.55;;;26.10;41.10;;;;;;5062958;28;20051;-80
2022/06/22 12:21:07;;;;;;;10.73;5.10;;;26.50;40.50;;;;;;5024625;28;20488;-82
2022/06/22 12:23:33;;;;;;;12.97;7.93;;;26.90;43.40;;;;;;5059551;28;20044;-81
2022/06/22 12:26:08;;;;;;;11.73;6.05;;;26.80;42.90;;;;;;5043858;28;20123;-82
2022/06/22 12:29:14;;;;;;;9.68;5.78;;;27.00;43.00;;;;;;5062209;28;20040;-82
2022/06/22 12:31:47;;;;;;;14.07;7.47;;;27.30;40.60;;;;;;5043045;28;20270;-80
2022/06/22 12:34:25;;;;;;;13.93;7.40;;;26.70;41.90;;;;;;5058869;28;20413;-82
2022/06/22 12:36:57;;;;;;;9.85;5.60;;;26.70;41.40;;;;;;5044195;28;20048;-81
2022/06/22 12:39:48;;;;;;;12.18;6.25;;;27.00;42.20;;;;;;5051881;28;20040;-82
2022/06/22 12:42:26;;;;;;;13.02;5.80;;;27.10;39.10;;;;;;5044823;28;20036;-85
2022/06/22 12:45:10;;;;;;;10.90;5.22;;;27.50;39.20;;;;;;5055594;28;20168;-82
2022/06/22 12:47:55;;;;;;;;;;;27.50;40.60;;;;;;5041562;28;20044;-81
2022/06/22 12:50:48;;;;;;;9.18;4.20;;;27.40;37.60;;;;;;5056044;28;19927;-81
2022/06/22 12:53:24;;;;;;;8.93;3.72;;;27.30;39.00;;;;;;5058723;28;20073;-83
2022/06/22 12:55:54;;;;;;;11.10;4.20;;;27.70;36.90;;;;;;5051868;28;20155;-84
2022/06/22 12:58:33;;;;;;;11.18;6.03;;;27.70;35.20;;;;;;5061484;28;20128;-81
2022/06/22 13:01:00;;;;;;;11.57;5.68;;;27.40;36.30;;;;;;5057065;28;20036;-84
2022/06/22 13:03:32;;;;;;;8.23;4.72;;;27.30;36.80;;;;;;5041588;28;20044;-81
2022/06/22 13:05:58;;;;;;;9.07;4.68;;;27.60;37.00;;;;;;5061331;28;20037;-81
2022/06/22 13:08:27;;;;;;;8.80;4.78;;;27.50;35.60;;;;;;5047235;28;20047;-83
2022/06/22 13:10:59;;;;;;;10.23;4.40;;;26.80;36.30;;;;;;5061312;28;20036;-83
2022/06/22 13:13:28;;;;;;;9.52;4.35;;;27.10;36.60;;;;;;5064093;28;20075;-85
2022/06/22 13:16:11;;;;;;;8.48;3.75;;;27.50;34.80;;;;;;5060377;28;20037;-81
2022/06/22 13:18:38;;;;;;;12.52;3.95;;;27.80;34.20;;;;;;5063719;28;20448;-82
2022/06/22 13:21:26;;;;;;;9.55;3.58;;;27.80;33.60;;;;;;5045410;28;20128;-81
2022/06/22 13:24:02;;;;;;;9.77;4.50;;;26.80;34.10;;;;;;5059437;28;20231;-81
2022/06/22 13:26:44;;;;;;;8.60;4.78;;;26.80;35.10;;;;;;5046258;28;20148;-83
2022/06/22 13:29:28;;;;;;;9.98;3.90;;;27.00;34.70;;;;;;5044207;28;20039;-82
2022/06/22 13:31:58;;;;;;;8.55;3.63;;;27.20;34.80;;;;;;5057889;28;20033;-82
2022/06/22 13:34:48;;;;;;;8.52;4.28;;;27.30;36.10;;;;;;5046192;28;20040;-82
2022/06/22 13:37:14;;;;;;;10.23;3.47;;;27.70;36.30;;;;;;5039737;28;20060;-83
2022/06/22 13:40:09;;;;;;;9.48;4.78;;;27.70;35.20;;;;;;5044620;28;20459;-84
2022/06/22 13:43:01;;;;;;;10.05;4.55;;;27.60;35.10;;;;;;5060079;28;20040;-83
2022/06/22 13:45:43;;;;;;;9.23;4.28;;;27.50;34.60;;;;;;5055857;28;20476;-83
2022/06/22 13:48:32;;;;;;;9.85;4.07;;;27.10;34.70;;;;;;5054999;28;20076;-82
2022/06/22 13:51:39;;;;;;;8.70;3.42;;;27.40;35.00;;;;;;5061571;28;20037;-83
2022/06/22 13:54:38;;;;;;;9.25;4.30;;;28.00;34.90;;;;;;5038802;28;20032;-84
2022/06/22 13:57:14;;;;;;;9.15;4.13;;;28.20;32.70;;;;;;5041413;28;20414;-84
2022/06/22 13:59:51;;;;;;;10.55;3.95;;;28.30;32.80;;;;;;5061234;28;20051;-81
2022/06/22 14:02:40;;;;;;;9.85;4.57;;;28.00;32.80;;;;;;5063245;28;20901;-85
2022/06/22 14:05:12;;;;;;;6.47;3.20;;;28.10;32.70;;;;;;5060806;28;20190;-84